Terminal Aerodrome Forecast
Issued by NWS Amarillo, TX

Home | Current Version | Previous Version | Text Only | Print | Product List | Glossary On
Versions: 1 2 3 4 5 6 7 8 9 10 11 12 13 14 15 16 17
000
FTUS44 KAMA 041100
TAFAMA
TAF
KAMA 041127Z 0412/0512 15013KT P6SM SCT120 SCT300
     FM042000 15017G27KT P6SM VCSH SCT035 BKN100
     FM042300 15017G27KT 4SM TSRA OVC020CB
     FM050300 15016G25KT 5SM SHRA VCTS OVC015CB
     FM050600 13015G24KT 5SM SHRA OVC010=

USA.gov is the U.S. government's official web portal to all federal, state and local government web resources and services.